Time;durP1;ratioP1;P1;durP2;ratioP2;P2;SDS_P1;SDS_P2;PMS_P1;PMS_P2;Temp;Humidity;BMP_temperature;BMP_pressure;BME280_temperature;BME280_humidity;BME280_pressure;Samples;Min_cycle;Max_cycle;Signal;HPM_P1;HPM_P2
2023/01/18 00:01:22;;;;;;;20.05;14.23;;;0.80;37.20;;;;;;5031218;28;20205;-87
2023/01/18 00:03:47;;;;;;;24.67;14.00;;;0.80;43.80;;;;;;5030298;28;20831;-88
2023/01/18 00:06:13;;;;;;;22.87;14.10;;;0.80;20.60;;;;;;5031426;28;20237;-88
2023/01/18 00:08:41;;;;;;;32.37;14.17;;;0.80;1.00;;;;;;5028241;28;20186;-88
2023/01/18 00:11:15;;;;;;;36.00;15.48;;;0.80;7.00;;;;;;5029416;28;20272;-88
2023/01/18 00:13:41;;;;;;;19.38;13.57;;;0.70;99.90;;;;;;5028418;28;20647;-88
2023/01/18 00:16:11;;;;;;;22.63;14.47;;;0.70;99.90;;;;;;5030591;28;20201;-88
2023/01/18 00:18:36;;;;;;;21.13;14.57;;;0.60;1.00;;;;;;5025806;28;20520;-89
2023/01/18 00:21:04;;;;;;;18.60;13.10;;;0.60;1.00;;;;;;5030317;28;20293;-86
2023/01/18 00:23:30;;;;;;;23.30;14.85;;;0.60;1.00;;;;;;5027064;28;20186;-87
2023/01/18 00:26:03;;;;;;;25.90;13.33;;;0.60;1.00;;;;;;5025058;28;20190;-88
2023/01/18 00:28:28;;;;;;;22.80;14.50;;;0.60;1.00;;;;;;5032882;28;20190;-88
2023/01/18 00:30:54;;;;;;;21.53;13.90;;;0.60;1.00;;;;;;5028886;28;20214;-87
2023/01/18 00:33:20;;;;;;;29.10;15.10;;;0.60;1.00;;;;;;5030795;28;20184;-88
2023/01/18 00:35:59;;;;;;;30.77;15.40;;;0.70;1.00;;;;;;5029940;28;20203;-89
2023/01/18 00:38:25;;;;;;;34.60;15.70;;;0.70;99.90;;;;;;5030717;28;20615;-87
2023/01/18 00:40:51;;;;;;;20.50;14.13;;;0.70;99.90;;;;;;5028530;28;20672;-88
2023/01/18 00:46:00;;;;;;;29.20;14.25;;;0.60;99.90;;;;;;5032955;28;20209;-87
2023/01/18 00:48:26;;;;;;;29.40;13.40;;;0.60;1.00;;;;;;5032609;28;20182;-88
2023/01/18 00:50:51;;;;;;;30.73;16.10;;;0.60;99.90;;;;;;5033513;28;20275;-88
2023/01/18 00:53:17;;;;;;;24.07;14.17;;;0.50;1.00;;;;;;5033177;28;20190;-88
2023/01/18 00:55:42;;;;;;;19.90;13.47;;;0.50;1.00;;;;;;5033089;28;20695;-88
2023/01/18 00:58:08;;;;;;;20.30;13.30;;;0.50;1.00;;;;;;5026392;28;20189;-87
2023/01/18 01:00:34;;;;;;;24.70;14.93;;;0.50;99.90;;;;;;5037193;28;20682;-88
2023/01/18 01:02:59;;;;;;;26.97;14.37;;;0.50;99.90;;;;;;5033680;28;20190;-88
2023/01/18 01:08:16;;;;;;;29.48;15.43;;;0.50;99.90;;;;;;5027108;28;20415;-88
2023/01/18 01:10:46;;;;;;;25.20;14.25;;;0.40;99.90;;;;;;5033238;28;20778;-87
2023/01/18 01:26:58;;;;;;;17.33;13.60;;;0.40;1.00;;;;;;5033525;28;20769;-88
2023/01/18 01:29:24;;;;;;;16.13;12.10;;;0.40;1.00;;;;;;5034601;28;20190;-88
2023/01/18 01:31:49;;;;;;;20.80;13.90;;;0.30;1.00;;;;;;5032766;28;20202;-88
2023/01/18 01:34:15;;;;;;;25.77;13.20;;;0.30;1.00;;;;;;5034681;28;20502;-86
2023/01/18 01:36:40;;;;;;;25.27;15.10;;;0.30;1.00;;;;;;5036419;28;20667;-87
2023/01/18 01:39:09;;;;;;;22.00;15.00;;;0.20;1.00;;;;;;5031495;28;20178;-88
2023/01/18 01:41:35;;;;;;;20.70;14.75;;;0.20;1.00;;;;;;5033464;28;20194;-87
2023/01/18 01:44:28;;;;;;;20.20;13.83;;;0.20;14.10;;;;;;5028255;28;20190;-87
2023/01/18 01:47:13;;;;;;;24.75;15.45;;;0.20;99.90;;;;;;5031394;28;20432;-88
2023/01/18 01:49:43;;;;;;;24.15;13.85;;;0.20;99.90;;;;;;5027267;28;21205;-89
2023/01/18 01:52:23;;;;;;;24.58;15.77;;;0.20;99.90;;;;;;5034996;28;20198;-88
2023/01/18 01:55:07;;;;;;;28.95;16.05;;;0.20;99.90;;;;;;5041027;28;20181;-87
2023/01/18 01:57:41;;;;;;;40.53;18.05;;;0.20;99.90;;;;;;5031404;28;20714;-87
2023/01/18 02:00:19;;;;;;;29.50;15.30;;;0.20;99.90;;;;;;5032259;28;20193;-88
2023/01/18 02:02:50;;;;;;;32.63;17.00;;;0.20;1.00;;;;;;5016601;28;20183;-88
2023/01/18 02:05:16;;;;;;;32.20;16.00;;;0.20;1.00;;;;;;5026797;28;20178;-89
2023/01/18 02:07:42;;;;;;;27.50;16.73;;;0.20;1.00;;;;;;5037285;28;20205;-88
2023/01/18 02:10:09;;;;;;;32.33;16.35;;;0.20;1.00;;;;;;5032708;28;20202;-88
2023/01/18 02:12:37;;;;;;;30.33;16.77;;;0.20;1.00;;;;;;5032200;28;20552;-89
2023/01/18 02:15:03;;;;;;;30.58;15.38;;;0.30;1.00;;;;;;5030681;28;20664;-88
2023/01/18 02:17:41;;;;;;;25.40;15.02;;;0.20;1.00;;;;;;5032188;28;20187;-87
2023/01/18 02:20:09;;;;;;;24.40;15.88;;;0.30;1.00;;;;;;5031211;28;20210;-88
2023/01/18 02:22:50;;;;;;;32.30;14.18;;;0.20;1.00;;;;;;5032176;28;20185;-87
2023/01/18 02:25:59;;;;;;;23.10;14.27;;;0.20;1.00;;;;;;5029234;28;20247;-88
2023/01/18 02:28:40;;;;;;;25.40;15.07;;;0.20;1.00;;;;;;5012938;28;20214;-90
2023/01/18 02:31:16;;;;;;;28.88;16.60;;;0.20;1.00;;;;;;5032125;28;20208;-88
2023/01/18 02:34:12;;;;;;;30.02;15.27;;;0.20;1.00;;;;;;5031802;28;20178;-88
2023/01/18 02:36:50;;;;;;;27.63;15.80;;;0.20;1.40;;;;;;5029173;28;20190;-88
2023/01/18 02:39:30;;;;;;;20.17;13.68;;;0.20;78.20;;;;;;5029220;28;20189;-87
2023/01/18 02:47:33;;;;;;;34.55;15.32;;;0.10;99.90;;;;;;5031782;28;20268;-88
2023/01/18 02:49:58;;;;;;;29.55;16.25;;;0.10;99.90;;;;;;5032767;28;20300;-88
2023/01/18 02:52:46;;;;;;;23.87;14.80;;;0.10;99.90;;;;;;5030894;28;20210;-88
2023/01/18 02:55:46;;;;;;;20.45;14.40;;;0.10;99.90;;;;;;5024475;28;20690;-88
2023/01/18 02:58:22;;;;;;;24.75;15.30;;;0.10;99.90;;;;;;5027942;28;20190;-87
2023/01/18 03:01:16;;;;;;;26.98;16.05;;;0.10;99.90;;;;;;5033224;28;20256;-88
2023/01/18 03:03:45;;;;;;;29.48;14.45;;;0.10;99.90;;;;;;5039080;28;20201;-87
2023/01/18 03:06:11;;;;;;;24.85;13.85;;;0.10;99.90;;;;;;5056657;28;20193;-88
2023/01/18 03:08:42;;;;;;;26.05;14.45;;;0.00;99.90;;;;;;5057639;28;20170;-88
2023/01/18 03:11:13;;;;;;;24.48;14.32;;;0.00;99.90;;;;;;5037610;28;20211;-89
2023/01/18 03:13:47;;;;;;;29.38;16.00;;;0.00;99.90;;;;;;5046784;28;20232;-90
2023/01/18 03:16:21;;;;;;;25.77;14.85;;;0.00;99.90;;;;;;5049667;28;20202;-88
2023/01/18 03:19:01;;;;;;;25.85;15.30;;;0.00;99.90;;;;;;5030607;28;20221;-88
2023/01/18 03:21:35;;;;;;;24.52;14.25;;;0.00;99.90;;;;;;5033924;28;20570;-87
2023/01/18 03:24:04;;;;;;;27.92;14.73;;;-0.10;99.90;;;;;;5032981;28;20274;-87
2023/01/18 03:26:33;;;;;;;21.38;14.27;;;-0.10;99.90;;;;;;5032793;28;20530;-87
2023/01/18 03:34:57;;;;;;;26.77;15.27;;;-0.10;1.00;;;;;;5027377;28;20193;-87
2023/01/18 03:37:32;;;;;;;27.95;15.45;;;-0.10;1.00;;;;;;5015238;28;20208;-88
2023/01/18 03:40:06;;;;;;;27.55;16.30;;;-0.10;1.00;;;;;;5032103;28;20201;-87
2023/01/18 03:42:38;;;;;;;31.70;16.70;;;-0.10;1.00;;;;;;5030517;28;20170;-87
2023/01/18 03:45:11;;;;;;;27.20;16.75;;;-0.10;1.00;;;;;;5031623;28;20253;-87
2023/01/18 03:47:37;;;;;;;22.42;15.65;;;-0.10;1.00;;;;;;5031778;28;20185;-88
2023/01/18 03:50:04;;;;;;;26.08;15.65;;;-0.10;1.00;;;;;;5031916;28;20555;-87
2023/01/18 03:52:39;;;;;;;29.13;15.48;;;-0.10;1.00;;;;;;5029976;28;20182;-88
2023/01/18 03:55:19;;;;;;;26.10;13.95;;;-0.10;1.00;;;;;;5022269;28;20178;-87
2023/01/18 03:58:02;;;;;;;22.85;14.05;;;-0.10;1.00;;;;;;5029820;28;20660;-87
2023/01/18 04:00:30;;;;;;;29.02;15.32;;;-0.10;1.00;;;;;;5030460;28;20671;-87
2023/01/18 04:02:56;;;;;;;23.75;15.32;;;-0.10;99.90;;;;;;5029155;28;20659;-87
2023/01/18 04:05:22;;;;;;;23.40;15.53;;;-0.10;99.90;;;;;;5042879;28;20191;-89
2023/01/18 04:07:48;;;;;;;23.70;14.33;;;-0.10;99.90;;;;;;5031516;28;20452;-87
2023/01/18 04:10:13;;;;;;;26.40;15.05;;;-0.10;99.90;;;;;;5031664;28;20953;-88
2023/01/18 04:12:39;;;;;;;24.57;14.80;;;-0.10;99.90;;;;;;5031469;28;20269;-88
2023/01/18 04:15:05;;;;;;;21.47;14.83;;;-0.10;99.90;;;;;;5031507;28;20178;-88
2023/01/18 04:17:31;;;;;;;28.48;14.98;;;-0.10;99.90;;;;;;5031709;28;20253;-88
2023/01/18 04:19:56;;;;;;;24.00;15.27;;;-0.10;99.90;;;;;;5032370;28;20699;-87
2023/01/18 04:22:22;;;;;;;28.70;15.30;;;-0.10;99.90;;;;;;5033692;28;20263;-88
2023/01/18 04:24:47;;;;;;;25.63;14.67;;;-0.20;99.90;;;;;;5034504;28;20710;-88
2023/01/18 04:27:13;;;;;;;35.10;15.47;;;-0.20;99.90;;;;;;5033458;28;20244;-87
2023/01/18 04:29:38;;;;;;;22.63;14.10;;;-0.20;99.90;;;;;;5035837;28;20202;-88
2023/01/18 04:32:04;;;;;;;24.50;14.20;;;-0.20;99.90;;;;;;5034051;28;20190;-88
2023/01/18 04:34:31;;;;;;;27.17;15.18;;;-0.20;99.90;;;;;;5035665;28;20190;-87
2023/01/18 04:36:56;;;;;;;23.63;14.60;;;-0.20;99.90;;;;;;5026911;28;20253;-88
2023/01/18 04:39:22;;;;;;;25.53;14.93;;;-0.20;99.90;;;;;;5040660;28;20177;-87
2023/01/18 04:41:47;;;;;;;23.17;15.67;;;-0.20;99.90;;;;;;5035842;28;20232;-87
2023/01/18 04:44:13;;;;;;;26.90;15.50;;;-0.20;99.90;;;;;;5036007;28;20174;-88
2023/01/18 04:46:39;;;;;;;22.60;13.67;;;-0.20;99.90;;;;;;5034370;28;20185;-88
2023/01/18 04:49:05;;;;;;;33.77;15.03;;;-0.20;99.90;;;;;;5035199;28;20190;-87
2023/01/18 04:51:31;;;;;;;20.88;13.98;;;-0.20;99.90;;;;;;5032933;28;20299;-88
2023/01/18 04:54:00;;;;;;;26.90;16.17;;;-0.20;99.90;;;;;;5035191;28;20214;-88
2023/01/18 04:56:26;;;;;;;25.25;13.93;;;-0.20;99.90;;;;;;5024403;28;20235;-88
2023/01/18 04:58:53;;;;;;;25.17;15.20;;;-0.30;99.90;;;;;;5032716;28;20182;-88
2023/01/18 05:01:20;;;;;;;27.33;16.10;;;-0.30;99.90;;;;;;5033838;28;20931;-88
2023/01/18 05:03:45;;;;;;;28.30;16.08;;;-0.30;99.90;;;;;;5035209;28;20249;-88
2023/01/18 05:06:13;;;;;;;25.37;14.37;;;-0.30;99.90;;;;;;5034878;28;20249;-87
2023/01/18 05:08:39;;;;;;;32.25;15.23;;;-0.30;99.90;;;;;;5035191;28;20186;-88
2023/01/18 05:11:11;;;;;;;25.83;16.15;;;-0.40;1.00;;;;;;5033434;28;20637;-87
2023/01/18 05:13:37;;;;;;;31.10;16.73;;;-0.30;1.00;;;;;;5031274;28;20185;-88
2023/01/18 05:16:04;;;;;;;31.35;16.85;;;-0.40;1.00;;;;;;5033962;28;20206;-87
2023/01/18 05:18:30;;;;;;;23.63;15.35;;;-0.40;1.00;;;;;;5034732;28;20174;-87
2023/01/18 05:20:55;;;;;;;23.80;14.60;;;-0.40;1.00;;;;;;5033478;28;20683;-88
2023/01/18 05:23:21;;;;;;;23.27;15.03;;;-0.40;1.00;;;;;;5033236;28;20463;-89
2023/01/18 05:25:52;;;;;;;29.33;15.63;;;-0.40;1.00;;;;;;5033690;28;20174;-87
2023/01/18 05:28:18;;;;;;;30.55;14.65;;;-0.50;1.00;;;;;;5028516;28;20912;-88
2023/01/18 05:30:43;;;;;;;23.70;14.77;;;-0.50;1.00;;;;;;5030718;28;20236;-87
2023/01/18 05:33:09;;;;;;;26.10;14.93;;;-0.50;1.00;;;;;;5037547;28;20209;-88
2023/01/18 05:35:35;;;;;;;25.07;15.70;;;-0.50;1.00;;;;;;5042966;28;20749;-87
2023/01/18 05:38:00;;;;;;;23.47;14.50;;;-0.50;1.00;;;;;;5034649;28;20808;-88
2023/01/18 05:40:26;;;;;;;25.30;13.93;;;-0.50;1.00;;;;;;5032056;28;20679;-90
2023/01/18 05:42:52;;;;;;;28.17;15.35;;;-0.60;1.00;;;;;;5034144;28;20557;-88
2023/01/18 05:45:18;;;;;;;23.67;16.50;;;-0.60;1.00;;;;;;5033576;28;20179;-88
2023/01/18 05:47:44;;;;;;;30.80;14.95;;;-0.60;1.00;;;;;;5033060;28;20421;-87
2023/01/18 05:50:10;;;;;;;31.70;15.60;;;-0.60;1.00;;;;;;5026472;28;20206;-87
2023/01/18 05:52:36;;;;;;;21.63;14.40;;;-0.60;1.00;;;;;;5034010;28;20182;-89
2023/01/18 05:55:03;;;;;;;21.57;14.50;;;-0.60;1.00;;;;;;5031815;28;20188;-89
2023/01/18 05:57:28;;;;;;;24.55;14.77;;;-0.60;1.00;;;;;;5032763;28;20425;-87
2023/01/18 05:59:54;;;;;;;29.73;16.37;;;-0.60;1.00;;;;;;5032869;28;20683;-87
2023/01/18 06:02:19;;;;;;;36.27;15.50;;;-0.60;1.00;;;;;;5034012;28;20178;-89
2023/01/18 06:04:46;;;;;;;22.83;15.60;;;-0.60;1.00;;;;;;5032156;28;20162;-87
2023/01/18 06:07:12;;;;;;;22.17;13.88;;;-0.60;1.00;;;;;;5032801;28;20205;-90
2023/01/18 06:09:38;;;;;;;32.42;17.17;;;-0.60;1.00;;;;;;5034299;28;20197;-89
2023/01/18 06:12:04;;;;;;;21.03;14.33;;;-0.60;1.00;;;;;;5033611;28;20213;-90
2023/01/18 06:14:29;;;;;;;28.03;16.60;;;-0.60;1.00;;;;;;5032255;28;20214;-89
2023/01/18 06:16:55;;;;;;;37.60;16.57;;;-0.60;1.00;;;;;;5033468;28;20468;-89
2023/01/18 06:19:20;;;;;;;30.73;15.33;;;-0.60;1.00;;;;;;5031180;28;20206;-89
2023/01/18 06:21:46;;;;;;;27.73;15.13;;;-0.60;1.00;;;;;;5033203;28;20198;-87
2023/01/18 06:24:12;;;;;;;24.47;16.20;;;-0.60;1.00;;;;;;5029823;28;20265;-89
2023/01/18 06:26:38;;;;;;;25.60;14.48;;;-0.50;1.00;;;;;;5031503;28;20317;-87
2023/01/18 06:29:04;;;;;;;25.90;15.43;;;-0.50;1.00;;;;;;5031293;28;20730;-86
2023/01/18 06:31:29;;;;;;;22.70;14.80;;;-0.50;1.00;;;;;;5033297;28;20198;-88
2023/01/18 06:33:55;;;;;;;20.93;14.47;;;-0.50;1.00;;;;;;5032728;28;20284;-87
2023/01/18 06:36:20;;;;;;;27.73;15.70;;;-0.50;1.00;;;;;;5033418;28;20197;-87
2023/01/18 06:38:46;;;;;;;22.63;14.00;;;-0.50;1.00;;;;;;5033080;28;20179;-87
2023/01/18 06:41:11;;;;;;;23.60;14.73;;;-0.50;1.00;;;;;;5028893;28;20205;-90
2023/01/18 06:43:37;;;;;;;25.67;15.27;;;-0.40;1.00;;;;;;5031474;28;20301;-90
2023/01/18 06:46:06;;;;;;;23.73;14.80;;;-0.40;1.00;;;;;;5030802;28;20277;-89
2023/01/18 06:48:31;;;;;;;20.58;12.88;;;-0.40;1.00;;;;;;5032871;28;20182;-89
2023/01/18 06:50:57;;;;;;;19.33;14.07;;;-0.40;1.00;;;;;;5032140;28;20199;-89
2023/01/18 06:53:23;;;;;;;25.10;13.63;;;-0.40;1.00;;;;;;5032817;28;20609;-90
2023/01/18 06:55:57;;;;;;;26.38;13.82;;;-0.40;1.00;;;;;;5032132;28;20469;-89
2023/01/18 06:58:25;;;;;;;20.67;12.65;;;-0.40;1.00;;;;;;5031818;28;20221;-89
2023/01/18 07:00:54;;;;;;;20.83;12.43;;;-0.40;1.00;;;;;;5023974;28;20207;-89
2023/01/18 07:03:19;;;;;;;25.92;13.80;;;-0.40;1.00;;;;;;5031628;28;20186;-89
2023/01/18 07:05:45;;;;;;;25.40;13.20;;;-0.40;1.00;;;;;;5031677;28;20182;-89
2023/01/18 07:08:11;;;;;;;23.48;13.43;;;-0.40;1.00;;;;;;5030535;28;20563;-89
2023/01/18 07:10:36;;;;;;;20.37;13.13;;;-0.40;1.00;;;;;;5032684;28;20216;-89
2023/01/18 07:13:02;;;;;;;24.10;12.93;;;-0.40;1.00;;;;;;5028277;28;20441;-89
2023/01/18 07:15:27;;;;;;;28.93;13.67;;;-0.30;1.00;;;;;;5032157;28;20281;-87
2023/01/18 07:17:53;;;;;;;21.63;12.57;;;-0.30;1.00;;;;;;5029257;28;20225;-87
2023/01/18 07:20:19;;;;;;;18.77;12.73;;;-0.30;1.00;;;;;;5032115;28;20209;-89
2023/01/18 07:22:44;;;;;;;20.90;12.10;;;-0.30;1.00;;;;;;5028063;28;20193;-89
2023/01/18 07:25:18;;;;;;;21.27;13.83;;;-0.30;1.00;;;;;;5031808;28;20171;-88
2023/01/18 07:27:43;;;;;;;27.33;13.13;;;-0.20;1.00;;;;;;5030134;28;20178;-89
2023/01/18 07:30:11;;;;;;;20.07;12.63;;;-0.20;1.00;;;;;;5027248;28;20702;-90
2023/01/18 07:32:37;;;;;;;26.20;12.60;;;0.00;1.00;;;;;;5029719;28;20198;-89
2023/01/18 07:35:04;;;;;;;22.08;12.15;;;0.10;1.00;;;;;;5036661;28;20178;-89
2023/01/18 07:37:29;;;;;;;21.85;12.85;;;0.20;1.00;;;;;;5032983;28;20178;-89
2023/01/18 07:39:55;;;;;;;21.60;12.47;;;0.30;99.90;;;;;;5041162;28;20193;-86
2023/01/18 07:42:21;;;;;;;28.05;11.30;;;0.30;99.90;;;;;;5052355;28;20182;-86
2023/01/18 07:47:21;;;;;;;20.80;12.40;;;0.40;32.60;;;;;;5031235;28;20268;-90
2023/01/18 07:49:47;;;;;;;23.37;13.73;;;0.50;1.00;;;;;;5033746;28;20217;-88
2023/01/18 07:52:12;;;;;;;22.53;13.80;;;0.60;1.00;;;;;;5034916;28;20176;-89
2023/01/18 07:54:38;;;;;;;18.50;13.00;;;0.60;1.00;;;;;;5032732;28;20190;-88
2023/01/18 07:57:03;;;;;;;27.17;14.60;;;0.70;99.90;;;;;;5032171;28;20297;-86
2023/01/18 07:59:31;;;;;;;18.50;12.60;;;0.80;99.90;;;;;;5041855;28;20716;-87
2023/01/18 08:01:57;;;;;;;20.65;13.32;;;0.90;1.00;;;;;;5012603;28;20183;-88
2023/01/18 08:04:23;;;;;;;24.20;13.93;;;1.00;99.90;;;;;;5026559;28;20308;-88
2023/01/18 08:06:58;;;;;;;20.48;12.68;;;1.10;99.90;;;;;;5032867;28;20718;-88
2023/01/18 08:09:24;;;;;;;25.10;15.02;;;1.30;1.00;;;;;;5032714;28;20662;-86
2023/01/18 08:11:49;;;;;;;21.83;12.93;;;1.40;99.90;;;;;;5014796;28;20233;-88
2023/01/18 08:14:15;;;;;;;18.97;12.27;;;1.50;99.90;;;;;;5029871;28;20187;-86
2023/01/18 08:16:56;;;;;;;20.90;13.70;;;1.70;1.00;;;;;;5040052;28;20207;-88
2023/01/18 08:19:21;;;;;;;19.38;12.25;;;1.80;99.90;;;;;;5024132;28;20690;-88
2023/01/18 08:21:47;;;;;;;22.73;13.67;;;1.90;78.40;;;;;;5027029;28;20198;-87
2023/01/18 08:24:15;;;;;;;24.47;14.27;;;2.00;1.00;;;;;;5031540;28;20170;-88
2023/01/18 08:26:43;;;;;;;21.10;13.15;;;2.20;1.00;;;;;;5029833;28;20643;-89
2023/01/18 08:29:09;;;;;;;20.05;12.32;;;2.30;99.90;;;;;;5031372;28;20190;-86
2023/01/18 08:31:45;;;;;;;24.73;12.47;;;2.40;51.60;;;;;;5032734;28;20596;-89
2023/01/18 08:34:31;;;;;;;17.77;12.52;;;2.80;1.00;;;;;;5031951;28;20181;-89
2023/01/18 08:37:00;;;;;;;21.42;12.27;;;3.40;1.00;;;;;;5032940;28;20209;-90
2023/01/18 08:39:29;;;;;;;20.25;12.82;;;4.20;99.90;;;;;;5024208;28;20282;-88
2023/01/18 08:41:54;;;;;;;18.70;11.60;;;4.80;1.00;;;;;;5013313;28;20197;-88
2023/01/18 08:44:20;;;;;;;21.27;13.30;;;5.40;99.90;;;;;;5038217;28;20260;-86
2023/01/18 08:46:45;;;;;;;16.77;12.10;;;6.00;99.90;;;;;;5028170;28;20193;-87
2023/01/18 08:49:11;;;;;;;17.10;12.27;;;6.70;10.50;;;;;;5030137;28;20205;-85
2023/01/18 08:51:37;;;;;;;15.87;11.20;;;7.80;1.00;;;;;;5028369;28;20202;-88
2023/01/18 08:54:35;;;;;;;21.43;12.80;;;9.00;1.00;;;;;;5024706;28;20187;-87
2023/01/18 08:57:01;;;;;;;16.97;11.70;;;10.00;1.00;;;;;;5016095;28;20445;-87
2023/01/18 08:59:27;;;;;;;20.70;13.50;;;10.90;99.90;;;;;;5012113;28;20440;-86
2023/01/18 09:01:52;;;;;;;16.77;11.87;;;11.20;99.90;;;;;;5022686;28;20466;-87
2023/01/18 09:04:18;;;;;;;15.60;12.90;;;10.70;99.90;;;;;;5027996;28;20194;-86
2023/01/18 09:06:50;;;;;;;18.77;12.23;;;10.20;99.90;;;;;;5030521;28;20206;-86
2023/01/18 09:09:18;;;;;;;16.63;11.23;;;9.80;99.90;;;;;;5029696;28;20182;-86
2023/01/18 09:11:44;;;;;;;19.10;11.73;;;9.60;99.90;;;;;;5023410;28;20516;-88
2023/01/18 09:14:14;;;;;;;17.40;11.97;;;9.40;99.90;;;;;;5030857;28;20432;-87
2023/01/18 09:16:39;;;;;;;19.57;12.53;;;9.10;99.90;;;;;;5027032;28;20188;-87
2023/01/18 09:19:05;;;;;;;16.30;11.90;;;8.90;99.90;;;;;;5032666;28;20524;-87
2023/01/18 09:21:31;;;;;;;18.33;11.70;;;8.60;99.90;;;;;;5028938;28;20210;-87
2023/01/18 09:23:58;;;;;;;24.17;13.47;;;8.20;99.90;;;;;;5032074;28;20558;-87
2023/01/18 09:26:24;;;;;;;19.43;11.63;;;8.00;99.90;;;;;;5018976;28;20301;-88
2023/01/18 09:28:53;;;;;;;18.73;12.50;;;7.70;99.90;;;;;;5027293;28;21001;-87
2023/01/18 09:31:20;;;;;;;22.63;13.10;;;7.40;99.90;;;;;;5033841;28;20511;-86
2023/01/18 09:33:46;;;;;;;16.85;12.90;;;7.20;99.90;;;;;;5028985;28;20432;-86
2023/01/18 09:36:13;;;;;;;17.13;12.27;;;7.00;99.90;;;;;;5029193;28;20191;-88
2023/01/18 09:38:40;;;;;;;16.08;13.02;;;6.80;99.90;;;;;;5033068;28;20194;-87
2023/01/18 09:41:36;;;;;;;17.30;12.60;;;6.50;99.90;;;;;;5032853;28;20202;-88
2023/01/18 09:44:28;;;;;;;18.27;12.45;;;6.30;99.90;;;;;;5027818;28;20182;-87
2023/01/18 09:47:12;;;;;;;17.75;12.32;;;6.20;99.90;;;;;;5027860;28;20625;-86
2023/01/18 09:49:55;;;;;;;21.02;11.55;;;6.10;99.90;;;;;;5029877;28;20186;-86
2023/01/18 09:52:58;;;;;;;18.15;12.18;;;6.10;99.90;;;;;;5024635;28;20170;-88
2023/01/18 09:56:15;;;;;;;17.92;13.38;;;6.00;99.90;;;;;;5017984;28;20606;-87
2023/01/18 10:01:54;;;;;;;17.88;11.10;;;5.90;99.90;;;;;;5032701;28;20206;-87
2023/01/18 10:04:24;;;;;;;19.03;12.10;;;5.90;99.90;;;;;;5055809;28;20344;-88
2023/01/18 10:06:54;;;;;;;17.05;12.02;;;5.90;99.90;;;;;;5055707;28;20473;-88
2023/01/18 10:09:28;;;;;;;16.23;11.05;;;5.90;99.90;;;;;;5051580;28;20162;-88
2023/01/18 10:11:58;;;;;;;17.88;13.43;;;5.90;99.90;;;;;;5053052;28;20204;-89
2023/01/18 10:14:34;;;;;;;18.38;12.52;;;5.90;99.90;;;;;;5056637;28;20234;-89
2023/01/18 10:17:05;;;;;;;15.95;12.68;;;5.90;99.90;;;;;;5032517;28;20181;-89
2023/01/18 10:19:32;;;;;;;18.25;13.43;;;5.80;99.90;;;;;;5041155;28;20181;-88
2023/01/18 10:22:20;;;;;;;14.75;11.43;;;5.80;99.90;;;;;;5052074;28;20232;-87
2023/01/18 10:25:00;;;;;;;20.88;13.13;;;5.80;99.90;;;;;;5014146;28;20644;-87
2023/01/18 10:27:47;;;;;;;17.10;11.98;;;5.70;99.90;;;;;;5019648;28;20253;-87
2023/01/18 10:30:24;;;;;;;15.57;12.07;;;5.60;99.90;;;;;;5016713;28;20256;-88
2023/01/18 10:33:16;;;;;;;16.58;12.55;;;5.50;99.90;;;;;;5027077;28;20562;-84
2023/01/18 10:35:48;;;;;;;16.08;11.70;;;5.40;99.90;;;;;;5022423;28;20208;-88
2023/01/18 10:38:19;;;;;;;22.42;13.30;;;5.40;99.90;;;;;;5032558;28;20261;-88
2023/01/18 10:41:07;;;;;;;21.42;13.55;;;5.40;99.90;;;;;;5035730;28;20209;-88
2023/01/18 10:43:40;;;;;;;16.13;11.95;;;5.30;99.90;;;;;;5030097;28;20552;-88
2023/01/18 10:46:15;;;;;;;18.38;11.73;;;5.30;99.90;;;;;;5031396;28;20228;-88
2023/01/18 10:49:01;;;;;;;17.20;12.10;;;5.30;99.90;;;;;;5031683;28;20312;-87
2023/01/18 10:51:36;;;;;;;19.48;13.60;;;5.30;99.90;;;;;;5027146;28;20237;-87
2023/01/18 10:54:16;;;;;;;14.18;11.32;;;5.20;99.90;;;;;;5031291;28;20173;-88
2023/01/18 10:56:43;;;;;;;17.00;11.50;;;5.20;99.90;;;;;;5032172;28;20205;-88
2023/01/18 10:59:25;;;;;;;17.17;11.70;;;5.20;99.90;;;;;;5023518;28;20217;-87
2023/01/18 11:01:55;;;;;;;17.67;12.88;;;5.20;99.90;;;;;;5022603;28;20664;-89
2023/01/18 11:04:27;;;;;;;20.55;12.27;;;5.20;99.90;;;;;;5027414;28;20186;-88
2023/01/18 11:07:04;;;;;;;21.15;12.85;;;5.30;99.90;;;;;;5016693;28;20214;-87
2023/01/18 11:09:48;;;;;;;16.00;11.68;;;5.30;99.90;;;;;;5024946;28;20189;-87
2023/01/18 11:12:37;;;;;;;19.70;12.23;;;5.40;99.90;;;;;;5027819;28;20204;-88
2023/01/18 11:15:17;;;;;;;17.38;12.27;;;5.40;99.90;;;;;;5029408;28;20591;-87
2023/01/18 11:17:54;;;;;;;15.95;11.02;;;5.50;99.90;;;;;;5024714;28;20557;-87
2023/01/18 11:20:28;;;;;;;16.52;11.43;;;5.50;99.90;;;;;;5029944;28;20199;-87
2023/01/18 11:22:58;;;;;;;18.25;12.43;;;5.50;99.90;;;;;;5016066;28;20264;-87
2023/01/18 11:25:36;;;;;;;16.95;10.48;;;5.60;99.90;;;;;;5031502;28;20369;-87
2023/01/18 11:28:03;;;;;;;16.13;11.07;;;5.80;1.00;;;;;;5041655;28;20189;-87
2023/01/18 11:30:29;;;;;;;16.63;9.60;;;6.40;1.00;;;;;;5026250;28;20664;-87
2023/01/18 11:32:58;;;;;;;12.77;8.90;;;7.60;1.00;;;;;;5039886;28;20420;-87
2023/01/18 11:35:37;;;;;;;13.40;9.20;;;9.30;1.00;;;;;;5019456;28;20443;-87
2023/01/18 11:38:07;;;;;;;14.13;10.07;;;10.80;99.90;;;;;;5025523;28;21125;-88
2023/01/18 11:40:34;;;;;;;11.00;9.17;;;12.40;99.90;;;;;;5026666;28;20459;-88
2023/01/18 11:43:10;;;;;;;22.40;10.37;;;13.60;99.90;;;;;;5027293;28;20452;-88
2023/01/18 11:45:42;;;;;;;11.77;9.37;;;14.60;99.90;;;;;;5024759;28;20492;-88
2023/01/18 11:48:28;;;;;;;11.90;9.23;;;15.40;99.90;;;;;;5027324;28;20430;-87
2023/01/18 11:51:16;;;;;;;13.97;8.20;;;16.10;99.90;;;;;;5027788;28;20456;-88
2023/01/18 11:54:08;;;;;;;11.10;8.23;;;16.90;99.90;;;;;;5024789;28;20943;-88
2023/01/18 11:56:44;;;;;;;8.80;7.70;;;17.40;99.90;;;;;;5025967;28;20992;-87
2023/01/18 11:59:31;;;;;;;11.23;8.30;;;17.50;99.90;;;;;;5023157;28;20427;-88
2023/01/18 12:02:21;;;;;;;10.50;7.47;;;17.70;99.90;;;;;;5028731;28;20460;-88
2023/01/18 12:05:11;;;;;;;12.90;7.87;;;17.80;99.90;;;;;;5025928;28;20858;-88
2023/01/18 12:08:06;;;;;;;12.03;7.70;;;18.00;99.90;;;;;;5023118;28;20476;-88
2023/01/18 12:10:47;;;;;;;8.90;7.77;;;18.00;99.90;;;;;;5022959;28;20475;-88
2023/01/18 12:13:34;;;;;;;10.73;7.07;;;18.10;99.90;;;;;;5027537;28;20578;-88
2023/01/18 12:16:03;;;;;;;9.70;7.40;;;18.20;99.90;;;;;;5028265;28;20928;-88
2023/01/18 12:18:50;;;;;;;8.40;7.53;;;18.00;99.90;;;;;;5028475;28;20461;-87
2023/01/18 12:21:53;;;;;;;11.73;7.57;;;18.10;99.90;;;;;;5029727;28;20459;-88
2023/01/18 12:24:44;;;;;;;10.87;8.20;;;18.40;99.90;;;;;;5025060;28;20546;-87
2023/01/18 12:27:27;;;;;;;10.97;7.73;;;18.60;99.90;;;;;;5041481;28;20534;-88
2023/01/18 12:30:34;;;;;;;11.93;9.20;;;18.60;99.90;;;;;;5025730;28;20468;-87
2023/01/18 12:33:26;;;;;;;9.43;7.20;;;18.50;99.90;;;;;;5024998;28;20796;-87
2023/01/18 12:36:12;;;;;;;7.23;6.53;;;18.30;99.90;;;;;;5012525;28;20452;-87
2023/01/18 12:38:51;;;;;;;8.57;7.13;;;18.20;99.90;;;;;;5028178;28;20445;-88
2023/01/18 12:41:43;;;;;;;8.20;7.33;;;18.20;99.90;;;;;;5030446;28;20475;-88
2023/01/18 12:44:43;;;;;;;10.90;6.97;;;18.10;99.90;;;;;;5027403;28;20859;-88
2023/01/18 12:47:33;;;;;;;8.90;7.17;;;18.10;99.90;;;;;;4999828;28;20848;-88
2023/01/18 12:50:18;;;;;;;7.53;6.30;;;17.90;99.90;;;;;;5028735;28;20454;-88
2023/01/18 12:52:53;;;;;;;6.73;5.97;;;17.70;99.90;;;;;;5031689;28;20446;-87
2023/01/18 12:55:22;;;;;;;7.33;5.93;;;17.70;99.90;;;;;;5030160;28;20450;-89
2023/01/18 12:57:51;;;;;;;8.53;6.50;;;17.70;99.90;;;;;;5038651;28;20457;-89
2023/01/18 13:00:38;;;;;;;9.70;6.00;;;17.80;99.90;;;;;;5041415;28;20463;-88
2023/01/18 13:03:10;;;;;;;10.30;6.37;;;17.70;99.90;;;;;;5043336;28;20452;-89
2023/01/18 13:05:51;;;;;;;10.63;6.70;;;17.70;99.90;;;;;;5036580;28;20992;-89
2023/01/18 13:08:37;;;;;;;8.30;7.37;;;17.50;99.90;;;;;;5033543;28;20430;-88
2023/01/18 13:11:09;;;;;;;7.33;6.13;;;17.40;99.90;;;;;;5037772;28;20524;-88
2023/01/18 13:13:36;;;;;;;8.67;6.87;;;17.20;99.90;;;;;;5047956;28;20498;-87
2023/01/18 13:16:18;;;;;;;9.40;6.23;;;17.00;99.90;;;;;;5038027;28;20495;-87
2023/01/18 13:19:02;;;;;;;11.90;7.10;;;17.00;99.90;;;;;;5029489;28;20938;-87
2023/01/18 13:21:50;;;;;;;11.27;7.33;;;16.80;99.90;;;;;;5028591;28;20956;-86
2023/01/18 13:24:45;;;;;;;10.60;7.70;;;16.70;99.90;;;;;;5012189;28;20436;-86
2023/01/18 13:27:14;;;;;;;10.87;7.63;;;16.30;99.90;;;;;;5028662;28;20963;-86
2023/01/18 13:29:41;;;;;;;12.07;8.23;;;16.20;99.90;;;;;;5025409;28;20449;-86
2023/01/18 13:32:29;;;;;;;8.30;7.07;;;15.90;99.90;;;;;;5024927;28;20503;-87
2023/01/18 13:35:18;;;;;;;13.23;6.50;;;15.80;99.90;;;;;;5027516;28;20447;-87
2023/01/18 13:37:48;;;;;;;10.80;7.77;;;15.70;99.90;;;;;;5028879;28;21013;-87
2023/01/18 13:40:42;;;;;;;8.87;6.80;;;15.60;99.90;;;;;;5026340;28;20507;-86